createdAt,value
2022-09-13T00:01:05.339Z,100228.19
2022-09-13T00:03:33.652Z,100230.06
2022-09-13T00:06:08.901Z,100237.06
2022-09-13T00:08:36.721Z,100253.59
2022-09-13T00:11:05.204Z,100267.59
2022-09-13T00:13:33.075Z,100266.34
2022-09-13T00:16:04.005Z,100260.16
2022-09-13T00:18:32.101Z,100242.84
2022-09-13T00:21:07.616Z,100233.75
2022-09-13T00:23:35.739Z,100238.94
2022-09-13T00:26:07.848Z,100183.75
2022-09-13T00:28:35.699Z,100200.91
2022-09-13T00:31:07.002Z,100191.44
2022-09-13T00:33:34.747Z,100207.78
2022-09-13T00:36:05.728Z,100205.13
2022-09-13T00:38:33.539Z,100208.56
2022-09-13T00:41:01.210Z,100215.94
2022-09-13T00:43:48.215Z,100221.56
2022-09-13T00:46:22.663Z,100221.81
2022-09-13T00:48:54.107Z,100231.25
2022-09-13T00:51:21.977Z,100231.06
2022-09-13T00:53:52.562Z,100234.38
2022-09-13T00:56:25.912Z,100220.28
2022-09-13T00:58:58.889Z,100225.72
2022-09-13T01:01:34.344Z,100223.84
2022-09-13T01:04:03.682Z,100216.84
2022-09-13T01:06:34.530Z,100223.03
2022-09-13T01:09:04.916Z,100220.91
2022-09-13T01:11:41.923Z,100227.28
2022-09-13T01:14:10.781Z,100219.03
2022-09-13T01:16:39.931Z,100219.03
2022-09-13T01:19:07.656Z,100221.91
2022-09-13T01:22:16.839Z,100226.03
2022-09-13T01:25:45.079Z,100225.81
2022-09-13T01:28:32.981Z,100222.97
2022-09-13T01:31:09.181Z,100220.28
2022-09-13T01:33:52.039Z,100214.72
2022-09-13T01:36:34.367Z,100221.94
2022-09-13T01:39:05.412Z,100210.38
2022-09-13T01:41:59.495Z,100216.75
2022-09-13T01:44:48.602Z,100211.78
2022-09-13T01:47:28.165Z,100213.03
2022-09-13T01:50:11.205Z,100218.16
2022-09-13T01:52:49.240Z,100210.50
2022-09-13T01:55:27.192Z,100208.47
2022-09-13T01:58:03.991Z,100199.78
2022-09-13T02:00:36.692Z,100206.81
2022-09-13T02:03:10.798Z,100203.28
2022-09-13T02:05:43.588Z,100189.72
2022-09-13T02:08:15.488Z,100202.47
2022-09-13T02:10:48.963Z,100192.78
2022-09-13T02:13:25.745Z,100199.16
2022-09-13T02:15:57.983Z,100199.78
2022-09-13T02:18:33.376Z,100193.59
2022-09-13T02:21:08.656Z,100188.06
2022-09-13T02:23:42.177Z,100184.38
2022-09-13T02:26:13.589Z,100169.72
2022-09-13T02:28:44.991Z,100190.75
2022-09-13T02:31:16.446Z,100180.50
2022-09-13T02:33:52.508Z,100187.50
2022-09-13T02:36:25.157Z,100185.00
2022-09-13T02:38:56.766Z,100187.88
2022-09-13T02:41:31.387Z,100188.72
2022-09-13T02:44:07.234Z,100185.84
2022-09-13T02:47:01.155Z,100188.97
2022-09-13T02:49:34.614Z,100189.16
2022-09-13T02:52:10.840Z,100189.78
2022-09-13T02:54:43.012Z,100189.59
2022-09-13T02:57:15.590Z,100192.28
2022-09-13T02:59:43.365Z,100189.97
2022-09-13T03:02:15.320Z,100193.50
2022-09-13T03:04:44.481Z,100203.19
2022-09-13T03:07:13.374Z,100194.13
2022-09-13T03:09:47.029Z,100201.75
2022-09-13T03:12:31.931Z,100194.53
2022-09-13T03:15:11.608Z,100202.75
2022-09-13T03:17:50.392Z,100204.63
2022-09-13T03:20:26.212Z,100193.03
2022-09-13T03:23:24.418Z,100197.56
2022-09-13T03:26:09.166Z,100197.75
2022-09-13T03:28:45.534Z,100188.91
2022-09-13T03:31:25.706Z,100185.41
2022-09-13T03:33:57.749Z,100182.72
2022-09-13T03:36:34.944Z,100171.38
2022-09-13T03:39:15.057Z,100173.19
2022-09-13T03:41:48.809Z,100175.69
2022-09-13T03:44:20.885Z,100173.19
2022-09-13T03:46:52.744Z,100162.69
2022-09-13T03:49:23.560Z,100168.47
2022-09-13T03:51:53.847Z,100163.66
2022-09-13T03:54:24.327Z,100154.47
2022-09-13T03:57:09.706Z,100162.50
2022-09-13T03:59:38.948Z,100158.16
2022-09-13T04:02:11.952Z,100152.13
2022-09-13T04:04:41.351Z,100149.59
2022-09-13T04:07:12.917Z,100159.91
2022-09-13T04:09:40.659Z,100161.84
2022-09-13T04:12:09.991Z,100163.50
2022-09-13T04:14:38.094Z,100158.97
2022-09-13T04:17:06.288Z,100165.50
2022-09-13T04:19:34.176Z,100158.50
2022-09-13T04:22:02.065Z,100161.75
2022-09-13T04:24:31.628Z,100171.69
2022-09-13T04:26:59.815Z,100172.56
2022-09-13T04:29:28.930Z,100174.22
2022-09-13T04:31:56.973Z,100165.63
2022-09-13T04:34:25.064Z,100163.13
2022-09-13T04:36:54.553Z,100164.78
2022-09-13T04:39:23.722Z,100163.75
2022-09-13T04:41:54.806Z,100160.16
2022-09-13T04:44:24.185Z,100158.31
2022-09-13T04:46:51.951Z,100160.16
2022-09-13T04:49:20.055Z,100156.84
2022-09-13T04:51:48.161Z,100160.94
2022-09-13T04:54:16.447Z,100163.41
2022-09-13T04:56:45.501Z,100153.06
2022-09-13T04:59:14.776Z,100168.94
2022-09-13T05:01:42.777Z,100172.47
2022-09-13T05:04:11.251Z,100182.41
2022-09-13T05:06:39.157Z,100187.75
2022-09-13T05:09:07.235Z,100182.03
2022-09-13T05:11:35.149Z,100189.44
2022-09-13T05:14:03.983Z,100186.09
2022-09-13T05:16:35.052Z,100185.63
2022-09-13T05:19:03.199Z,100197.28
2022-09-13T05:21:31.924Z,100196.25
2022-09-13T05:24:00.421Z,100193.38
2022-09-13T05:26:31.261Z,100191.53
2022-09-13T05:28:59.398Z,100182.91
2022-09-13T05:31:29.281Z,100188.91
2022-09-13T05:34:00.498Z,100184.38
2022-09-13T05:36:28.851Z,100183.34
2022-09-13T05:39:18.678Z,100178.00
2022-09-13T05:41:45.444Z,100177.38
2022-09-13T05:44:13.906Z,100178.19
2022-09-13T05:46:42.296Z,100174.31
2022-09-13T05:49:13.491Z,100181.31
2022-09-13T05:51:41.391Z,100173.09
2022-09-13T05:54:12.405Z,100167.75
2022-09-13T05:56:40.494Z,100179.28
2022-09-13T05:59:08.944Z,100172.72
2022-09-13T06:01:36.821Z,100178.47
2022-09-13T06:04:04.864Z,100178.47
2022-09-13T06:06:35.139Z,100188.81
2022-09-13T06:09:03.045Z,100178.09
2022-09-13T06:11:30.817Z,100178.72
2022-09-13T06:13:58.599Z,100174.00
2022-09-13T06:16:26.330Z,100173.56
2022-09-13T06:18:54.047Z,100175.03
2022-09-13T06:21:28.788Z,100181.03
2022-09-13T06:23:58.271Z,100178.97
2022-09-13T06:26:27.449Z,100192.59
2022-09-13T06:28:57.069Z,100189.31
2022-09-13T06:31:29.905Z,100186.00
2022-09-13T06:33:59.512Z,100199.59
2022-09-13T06:36:28.144Z,100190.53
2022-09-13T06:38:59.032Z,100195.91
2022-09-13T06:41:28.311Z,100193.84
2022-09-13T06:43:58.537Z,100181.50
2022-09-13T06:46:32.111Z,100166.63
2022-09-13T06:49:02.866Z,100170.56
2022-09-13T06:51:31.411Z,100180.28
2022-09-13T06:54:00.136Z,100190.78
2022-09-13T06:56:32.507Z,100194.75
2022-09-13T06:59:02.839Z,100196.38
2022-09-13T07:01:32.329Z,100197.22
2022-09-13T07:04:04.179Z,100187.75
2022-09-13T07:06:36.143Z,100196.84
2022-09-13T07:09:06.245Z,100190.28
2022-09-13T07:11:38.243Z,100189.66
2022-09-13T07:14:09.697Z,100185.56
2022-09-13T07:16:38.992Z,100188.63
2022-09-13T07:19:10.539Z,100189.06
2022-09-13T07:21:38.293Z,100192.34
2022-09-13T07:24:08.455Z,100185.38
2022-09-13T07:26:38.123Z,100181.03
2022-09-13T07:29:08.142Z,100181.47
2022-09-13T07:31:37.717Z,100184.41
2022-09-13T07:34:12.130Z,100190.84
2022-09-13T07:36:40.323Z,100182.56
2022-09-13T07:39:13.558Z,100196.44
2022-09-13T07:41:44.749Z,100194.19
2022-09-13T07:44:15.829Z,100203.06
2022-09-13T07:46:44.415Z,100203.66
2022-09-13T07:49:13.892Z,100209.44
2022-09-13T07:51:44.042Z,100202.22
2022-09-13T07:54:14.212Z,100204.72
2022-09-13T07:56:42.645Z,100199.34
2022-09-13T07:59:15.624Z,100197.53
2022-09-13T08:01:45.011Z,100193.59
2022-09-13T08:04:17.256Z,100202.47
2022-09-13T08:06:45.662Z,100207.06
2022-09-13T08:09:14.150Z,100211.00
2022-09-13T08:11:43.768Z,100212.84
2022-09-13T08:14:14.840Z,100209.78
2022-09-13T08:16:43.190Z,100210.16
2022-09-13T08:19:14.612Z,100195.72
2022-09-13T08:21:43.593Z,100211.66
2022-09-13T08:24:15.750Z,100212.09
2022-09-13T08:26:43.667Z,100217.84
2022-09-13T08:29:14.651Z,100215.78
2022-09-13T08:31:43.258Z,100209.19
2022-09-13T08:34:14.409Z,100210.84
2022-09-13T08:36:42.237Z,100211.09
2022-09-13T08:39:12.729Z,100217.28
2022-09-13T08:42:09.701Z,100225.31
2022-09-13T08:44:46.347Z,100221.19
2022-09-13T08:47:36.462Z,100217.06
2022-09-13T08:50:13.851Z,100226.97
2022-09-13T08:52:50.114Z,100220.19
2022-09-13T08:55:28.375Z,100226.22
2022-09-13T08:58:06.474Z,100217.97
2022-09-13T09:00:40.195Z,100221.66
2022-09-13T09:03:21.806Z,100217.31
2022-09-13T09:05:52.721Z,100207.81
2022-09-13T09:08:31.171Z,100212.19
2022-09-13T09:11:03.600Z,100214.66
2022-09-13T09:13:33.714Z,100218.78
2022-09-13T09:16:08.416Z,100219.63
2022-09-13T09:18:39.961Z,100207.25
2022-09-13T09:21:16.370Z,100219.19
2022-09-13T09:23:50.598Z,100211.34
2022-09-13T09:26:20.760Z,100211.97
2022-09-13T09:28:51.853Z,100214.88
2022-09-13T09:31:30.355Z,100205.38
2022-09-13T09:34:09.425Z,100214.25
2022-09-13T09:36:40.616Z,100203.94
2022-09-13T09:39:13.892Z,100200.22
2022-09-13T09:41:41.743Z,100207.44
2022-09-13T09:44:18.783Z,100202.09
2022-09-13T09:46:51.029Z,100200.19
2022-09-13T09:49:40.331Z,100197.09
2022-09-13T09:52:11.846Z,100200.00
2022-09-13T09:54:41.628Z,100203.91
2022-09-13T09:57:09.480Z,100200.59
2022-09-13T09:59:37.168Z,100201.41
2022-09-13T10:02:17.523Z,100198.31
2022-09-13T10:04:56.069Z,100199.72
2022-09-13T10:07:28.968Z,100194.75
2022-09-13T10:10:03.302Z,100200.41
2022-09-13T10:12:34.632Z,100202.59
2022-09-13T10:15:16.455Z,100205.56
2022-09-13T10:18:02.954Z,100204.41
2022-09-13T10:20:31.387Z,100199.50
2022-09-13T10:23:21.068Z,100206.22
2022-09-13T10:26:02.716Z,100203.44
2022-09-13T10:28:33.588Z,100208.78
2022-09-13T10:31:06.301Z,100197.41
2022-09-13T10:33:39.201Z,100198.22
2022-09-13T10:36:14.097Z,100196.78
2022-09-13T10:38:54.212Z,100200.72
2022-09-13T10:41:27.113Z,100192.06
2022-09-13T10:44:01.352Z,100193.03
2022-09-13T10:46:32.532Z,100198.88
2022-09-13T10:49:01.635Z,100195.84
2022-09-13T10:51:38.647Z,100189.50
2022-09-13T10:54:16.487Z,100184.63
2022-09-13T10:56:45.176Z,100186.00
2022-09-13T10:59:20.985Z,100194.69
2022-09-13T11:02:13.667Z,100179.31
2022-09-13T11:04:57.833Z,100184.94
2022-09-13T11:07:43.687Z,100181.13
2022-09-13T11:10:19.437Z,100179.13
2022-09-13T11:12:55.833Z,100185.69
2022-09-13T11:15:38.096Z,100177.75
2022-09-13T11:18:21.395Z,100174.75
2022-09-13T11:21:02.627Z,100176.09
2022-09-13T11:23:59.000Z,100162.94
2022-09-13T11:26:44.787Z,100168.75
2022-09-13T11:29:27.793Z,100161.94
2022-09-13T11:32:07.007Z,100156.09
2022-09-13T11:34:50.863Z,100159.72
2022-09-13T11:37:38.506Z,100163.66
2022-09-13T11:40:24.240Z,100171.16
2022-09-13T11:43:00.378Z,100163.00
2022-09-13T11:45:29.393Z,100146.47
2022-09-13T11:48:31.585Z,100147.53
2022-09-13T11:51:06.220Z,100149.63
2022-09-13T11:53:57.491Z,100139.44
2022-09-13T11:56:32.196Z,100148.78
2022-09-13T11:59:11.202Z,100142.66
2022-09-13T12:01:50.424Z,100153.06
2022-09-13T12:04:25.273Z,100151.13
2022-09-13T12:06:58.720Z,100152.78
2022-09-13T12:09:33.390Z,100158.25
2022-09-13T12:12:06.270Z,100158.78
2022-09-13T12:14:43.765Z,100153.19
2022-09-13T12:17:24.117Z,100134.66
2022-09-13T12:19:55.371Z,100138.75
2022-09-13T12:22:30.235Z,100152.00
2022-09-13T12:25:07.501Z,100150.28
2022-09-13T12:27:40.702Z,100146.81
2022-09-13T12:30:16.144Z,100134.97
2022-09-13T12:32:45.562Z,100126.34
2022-09-13T12:35:24.335Z,100129.25
2022-09-13T12:38:31.198Z,100130.63
2022-09-13T12:41:19.169Z,100123.16
2022-09-13T12:44:02.727Z,100126.16
2022-09-13T12:46:51.529Z,100117.75
2022-09-13T12:49:36.142Z,100118.09
2022-09-13T12:52:19.001Z,100111.59
2022-09-13T12:55:12.886Z,100108.22
2022-09-13T12:57:59.396Z,100110.00
2022-09-13T13:00:30.271Z,100113.31
2022-09-13T13:03:11.641Z,100116.69
2022-09-13T13:05:43.461Z,100119.00
2022-09-13T13:08:27.632Z,100117.84
2022-09-13T13:11:04.480Z,100111.59
2022-09-13T13:13:37.612Z,100109.53
2022-09-13T13:16:23.040Z,100107.41
2022-09-13T13:18:53.055Z,100102.84
2022-09-13T13:21:37.631Z,100097.84
2022-09-13T13:24:40.371Z,100097.56
2022-09-13T13:27:37.901Z,100096.63
2022-09-13T13:30:55.193Z,100093.63
2022-09-13T13:33:31.929Z,100091.78
2022-09-13T13:36:22.665Z,100096.41
2022-09-13T13:38:51.044Z,100077.84
2022-09-13T13:41:39.468Z,100082.56
2022-09-13T13:44:44.398Z,100081.41
2022-09-13T13:47:56.772Z,100077.97
2022-09-13T13:50:25.859Z,100077.38
2022-09-13T13:53:05.557Z,100076.81
2022-09-13T13:55:43.772Z,100079.50
2022-09-13T13:58:30.830Z,100085.03
2022-09-13T14:01:02.336Z,100074.22
2022-09-13T14:03:52.704Z,100073.41
2022-09-13T14:06:32.303Z,100072.00
2022-09-13T14:09:12.452Z,100070.84
2022-09-13T14:11:52.604Z,100074.25
2022-09-13T14:14:33.416Z,100059.22
2022-09-13T14:17:30.919Z,100051.69
2022-09-13T14:20:04.476Z,100064.47
2022-09-13T14:22:33.630Z,100058.16
2022-09-13T14:25:17.550Z,100048.47
2022-09-13T14:27:46.227Z,100055.53
2022-09-13T14:30:22.341Z,100058.22
2022-09-13T14:32:51.847Z,100050.34
2022-09-13T14:35:31.763Z,100050.91
2022-09-13T14:38:13.963Z,100053.34
2022-09-13T14:40:41.739Z,100047.66
2022-09-13T14:43:17.410Z,100048.84
2022-09-13T14:45:48.604Z,100050.59
2022-09-13T14:48:20.010Z,100040.06
2022-09-13T14:50:51.415Z,100046.28
2022-09-13T14:53:23.553Z,100029.91
2022-09-13T14:55:54.903Z,100043.19
2022-09-13T14:58:26.015Z,100050.13
2022-09-13T15:01:00.793Z,100044.25
2022-09-13T15:03:29.439Z,100037.06
2022-09-13T15:06:00.405Z,100033.44
2022-09-13T15:08:49.542Z,100040.09
2022-09-13T15:11:29.266Z,100043.78
2022-09-13T15:14:24.234Z,100042.50
2022-09-13T15:16:53.876Z,100044.63
2022-09-13T15:19:37.392Z,100036.88
2022-09-13T15:22:10.351Z,100028.31
2022-09-13T15:24:44.889Z,100027.75
2022-09-13T15:27:23.679Z,100027.75
2022-09-13T15:29:53.080Z,100033.03
2022-09-13T15:32:31.285Z,100031.88
2022-09-13T15:35:00.872Z,100034.00
2022-09-13T15:37:32.000Z,100029.97
2022-09-13T15:40:15.218Z,100034.00
2022-09-13T15:42:47.096Z,100040.44
2022-09-13T15:45:15.291Z,100039.63
2022-09-13T15:47:46.711Z,100040.09
2022-09-13T15:50:21.987Z,100042.66
2022-09-13T15:52:49.932Z,100043.91
2022-09-13T15:55:19.118Z,100039.81
2022-09-13T15:57:47.689Z,100045.44
2022-09-13T16:00:17.862Z,100025.34
2022-09-13T16:02:45.782Z,100035.34
2022-09-13T16:05:14.227Z,100028.16
2022-09-13T16:07:42.755Z,100023.25
2022-09-13T16:10:21.195Z,100042.69
2022-09-13T16:12:49.212Z,100031.34
2022-09-13T16:15:17.243Z,100035.78
2022-09-13T16:17:45.004Z,100035.63
2022-09-13T16:20:15.380Z,100037.41
2022-09-13T16:22:43.382Z,100030.00
2022-09-13T16:25:15.186Z,100020.72
2022-09-13T16:27:44.760Z,100033.38
2022-09-13T16:30:15.215Z,100033.00
2022-09-13T16:32:43.133Z,100036.41
2022-09-13T16:35:12.245Z,100030.66
2022-09-13T16:37:40.999Z,100027.34
2022-09-13T16:40:10.089Z,100026.16
2022-09-13T16:42:39.107Z,100021.47
2022-09-13T16:45:10.077Z,100025.22
2022-09-13T16:47:37.776Z,100017.56
2022-09-13T16:50:07.273Z,100024.22
2022-09-13T16:52:35.459Z,100023.63
2022-09-13T16:55:04.063Z,100025.50
2022-09-13T16:57:31.785Z,100032.16
2022-09-13T16:59:59.501Z,100021.03
2022-09-13T17:02:28.916Z,100029.34
2022-09-13T17:04:56.895Z,100031.44
2022-09-13T17:07:24.653Z,100036.00
2022-09-13T17:09:52.425Z,100038.56
2022-09-13T17:12:20.430Z,100036.31
2022-09-13T17:14:50.475Z,100039.47
2022-09-13T17:17:19.015Z,100038.28
2022-09-13T17:19:48.170Z,100040.16
2022-09-13T17:22:16.447Z,100012.19
2022-09-13T17:24:44.686Z,100037.69
2022-09-13T17:27:12.377Z,100029.59
2022-09-13T17:29:40.136Z,100025.25
2022-09-13T17:32:07.880Z,100028.41
2022-09-13T17:34:35.570Z,100033.78
2022-09-13T17:37:06.539Z,100028.28
2022-09-13T17:39:34.585Z,100039.50
2022-09-13T17:42:02.226Z,100038.28
2022-09-13T17:44:29.916Z,100048.84
2022-09-13T17:46:57.642Z,100036.03
2022-09-13T17:49:26.815Z,100032.47
2022-09-13T17:51:57.924Z,100040.38
2022-09-13T17:54:27.150Z,100034.44
2022-09-13T17:56:54.811Z,100040.97
2022-09-13T17:59:23.295Z,100031.06
2022-09-13T18:01:53.418Z,100039.41
2022-09-13T18:04:22.959Z,100034.09
2022-09-13T18:06:53.914Z,100035.38
2022-09-13T18:09:22.476Z,100040.25
2022-09-13T18:11:52.039Z,100030.63
2022-09-13T18:14:20.359Z,100034.72
2022-09-13T18:16:55.286Z,100030.63
2022-09-13T18:19:44.329Z,100034.56
2022-09-13T18:22:11.120Z,100038.56
2022-09-13T18:24:38.940Z,100038.97
2022-09-13T18:27:08.402Z,100041.28
2022-09-13T18:29:39.132Z,100041.75
2022-09-13T18:32:07.346Z,100046.53
2022-09-13T18:34:35.076Z,100049.47
2022-09-13T18:37:02.780Z,100048.31
2022-09-13T18:39:30.602Z,100050.00
2022-09-13T18:41:58.412Z,100046.69
2022-09-13T18:44:30.376Z,100046.75
2022-09-13T18:47:02.920Z,100048.41
2022-09-13T18:49:30.719Z,100045.09
2022-09-13T18:51:58.365Z,100040.91
2022-09-13T18:54:26.052Z,100042.81
2022-09-13T18:56:54.868Z,100037.84
2022-09-13T18:59:22.713Z,100037.44
2022-09-13T19:01:51.877Z,100033.09
2022-09-13T19:04:21.161Z,100032.91
2022-09-13T19:06:50.648Z,100024.22
2022-09-13T19:09:20.579Z,100027.75
2022-09-13T19:11:53.148Z,100020.78
2022-09-13T19:14:23.793Z,100021.81
2022-09-13T19:16:54.754Z,100019.16
2022-09-13T19:19:22.939Z,100027.84
2022-09-13T19:21:51.316Z,100014.63
2022-09-13T19:24:20.642Z,100009.03
2022-09-13T19:26:51.472Z,100012.56
2022-09-13T19:29:21.967Z,100013.38
2022-09-13T19:31:51.473Z,100012.94
2022-09-13T19:34:22.070Z,100011.91
2022-09-13T19:36:52.517Z,100004.69
2022-09-13T19:39:20.270Z,99999.31
2022-09-13T19:41:47.973Z,99992.91
2022-09-13T19:44:15.934Z,99992.56
2022-09-13T19:46:44.178Z,99991.06
2022-09-13T19:49:14.545Z,99984.47
2022-09-13T19:51:48.777Z,99989.00
2022-09-13T19:54:19.202Z,99986.34
2022-09-13T19:56:47.503Z,99991.94
2022-09-13T19:59:17.219Z,99988.63
2022-09-13T20:01:46.638Z,99984.91
2022-09-13T20:04:16.217Z,99984.91
2022-09-13T20:06:47.158Z,99995.91
2022-09-13T20:09:17.011Z,99987.84
2022-09-13T20:11:45.810Z,99987.84
2022-09-13T20:14:14.468Z,99990.53
2022-09-13T20:16:43.620Z,99996.53
2022-09-13T20:19:38.997Z,99991.16
2022-09-13T20:22:04.773Z,100001.28
2022-09-13T20:24:32.595Z,100003.56
2022-09-13T20:27:00.485Z,99999.44
2022-09-13T20:29:28.410Z,100006.44
2022-09-13T20:31:56.218Z,99999.00
2022-09-13T20:34:24.081Z,99995.50
2022-09-13T20:36:51.958Z,99999.84
2022-09-13T20:39:21.223Z,100006.03
2022-09-13T20:41:50.134Z,100005.41
2022-09-13T20:44:18.484Z,100004.59
2022-09-13T20:46:46.326Z,99998.41
2022-09-13T20:49:14.100Z,99999.47
2022-09-13T20:51:41.881Z,100000.50
2022-09-13T20:54:12.238Z,100011.47
2022-09-13T20:56:41.333Z,100008.16
2022-09-13T20:59:10.024Z,100011.47
2022-09-13T21:01:37.789Z,100004.84
2022-09-13T21:04:06.204Z,100004.03
2022-09-13T21:06:38.654Z,99991.44
2022-09-13T21:09:06.291Z,99993.09
2022-09-13T21:11:36.576Z,99995.59
2022-09-13T21:14:08.310Z,100008.19
2022-09-13T21:16:38.992Z,100011.09
2022-09-13T21:19:07.882Z,100017.31
2022-09-13T21:21:38.292Z,100016.28
2022-09-13T21:24:09.656Z,100011.97
2022-09-13T21:26:39.630Z,100007.00
2022-09-13T21:29:09.776Z,100007.41
2022-09-13T21:31:37.779Z,100008.44
2022-09-13T21:34:07.332Z,100003.69
2022-09-13T21:36:37.212Z,100000.81
2022-09-13T21:39:05.717Z,99998.34
2022-09-13T21:41:36.768Z,100000.00
2022-09-13T21:44:04.733Z,100000.19
2022-09-13T21:46:36.152Z,99983.50
2022-09-13T21:49:06.292Z,99991.53
2022-09-13T21:51:36.262Z,100002.06
2022-09-13T21:54:06.637Z,99990.94
2022-09-13T21:56:37.068Z,100000.00
2022-09-13T21:59:08.785Z,100002.06
2022-09-13T22:01:40.996Z,99988.63
2022-09-13T22:04:11.076Z,99981.63
2022-09-13T22:06:38.827Z,99983.88
2022-09-13T22:09:08.548Z,99979.75
2022-09-13T22:11:39.730Z,99981.41
2022-09-13T22:14:09.408Z,99982.00
2022-09-13T22:16:40.713Z,99985.91
2022-09-13T22:19:12.066Z,99984.09
2022-09-13T22:21:41.831Z,99984.69
2022-09-13T22:24:11.063Z,99983.03
2022-09-13T22:26:40.596Z,99984.09
2022-09-13T22:29:09.728Z,99991.06
2022-09-13T22:31:41.060Z,99988.63
2022-09-13T22:34:12.080Z,99976.47
2022-09-13T22:36:41.428Z,99977.50
2022-09-13T22:39:11.699Z,99985.34
2022-09-13T22:41:40.096Z,99978.94
2022-09-13T22:44:08.399Z,99977.69
2022-09-13T22:46:37.890Z,99972.38
2022-09-13T22:49:09.011Z,99969.88
2022-09-13T22:51:36.739Z,99961.19
2022-09-13T22:54:07.271Z,99952.53
2022-09-13T22:56:36.838Z,99949.22
2022-09-13T22:59:07.467Z,99937.28
2022-09-13T23:01:36.162Z,99944.69
2022-09-13T23:04:04.632Z,99950.47
2022-09-13T23:06:34.526Z,99939.31
2022-09-13T23:09:05.527Z,99957.91
2022-09-13T23:11:37.127Z,99949.63
2022-09-13T23:14:08.220Z,99946.38
2022-09-13T23:16:38.305Z,99939.34
2022-09-13T23:19:06.331Z,99931.94
2022-09-13T23:21:37.778Z,99927.78
2022-09-13T23:24:07.511Z,99922.63
2022-09-13T23:26:35.445Z,99917.47
2022-09-13T23:29:05.041Z,99921.78
2022-09-13T23:31:35.200Z,99927.38
2022-09-13T23:34:04.803Z,99924.09
2022-09-13T23:36:36.198Z,99932.34
2022-09-13T23:39:05.667Z,99935.22
2022-09-13T23:41:34.143Z,99924.50
2022-09-13T23:44:02.126Z,99941.84
2022-09-13T23:46:30.904Z,99930.50
2022-09-13T23:48:58.628Z,99929.88
2022-09-13T23:51:28.142Z,99929.25
2022-09-13T23:53:58.301Z,99913.41
2022-09-13T23:56:27.109Z,99918.75
2022-09-13T23:58:56.724Z,99917.09
